Terminal Aerodrome Forecast
Issued by NWS

Home | Current Version | Previous Version | Text Only | Print | Product List | Glossary On
Versions: 1 2 3 4 5 6 7 8 9 10 11 12 13 14 15 16
000
FTUS43 KDLH 020532
TAFHYR
TAF
KHYR 020532Z 0206/0306 21004KT P6SM BKN080
     FM021100 22004KT P6SM VCSH SCT050 BKN080
      TEMPO 0211/0215 -TSRA SCT025 BKN035CB OVC090
     FM021800 33007KT P6SM VCSH SCT030 BKN040
     FM030100 32004KT P6SM SCT030 BKN090=

USA.gov is the U.S. government's official web portal to all federal, state and local government web resources and services.